Data for 04/21/2017

Time Sea-Level Adjusted Pressure Absolute Pressure Temperature Relative Humidity Dew Point   
(mb) (inHg) (mb) (inHg) (C) (F) (%) (C) (F)
00:05 1021 30.15 850 25.1 2.4 36.4 87 0.5 32.9
00:10 1021 30.15 850 25.1 2.4 36.3 86 0.3 32.6
00:15 1021 30.15 850 25.1 2.2 35.9 87 0.2 32.3
00:20 1021 30.15 850 25.1 2 35.6 88 0.2 32.3
00:25 1021 30.15 850 25.1 1.9 35.4 87 -0 32
00:30 1021 30.15 850 25.1 1.7 35.1 88 -0.1 31.9
00:35 1021 30.15 850 25.1 1.6 34.9 88 -0.2 31.6
00:40 1021 30.15 850 25.1 1.5 34.7 88 -0.3 31.5
00:45 1021 30.15 850 25.1 1.4 34.4 89 -0.3 31.4
00:50 1021 30.15 850 25.1 1.2 34.2 89 -0.3 31.4
00:55 1021 30.15 850 25.1 1.2 34.2 90 -0.3 31.5
01:00 1021 30.15 850 25.1 1.2 34.2 90 -0.3 31.5
01:05 1021 30.15 850 25.1 1.3 34.3 90 -0.2 31.6
01:10 1021 30.15 850 25.1 1.3 34.4 90 -0.2 31.6
01:15 1021 30.15 851 25.13 1.3 34.4 90 -0.1 31.8
01:20 1021 30.15 851 25.13 1.3 34.4 90 -0.1 31.8
01:25 1021 30.15 851 25.13 1.4 34.5 90 -0.1 31.8
01:30 1022 30.18 851 25.13 1.4 34.4 90 -0.1 31.8
01:35 1022 30.18 851 25.13 1.3 34.4 90 -0.2 31.7
01:40 1021 30.15 851 25.13 1.2 34.2 90 -0.2 31.6
01:45 1022 30.18 851 25.13 1.2 34.2 90 -0.2 31.7
01:50 1022 30.18 851 25.13 1.2 34.1 90 -0.2 31.6
01:55 1022 30.18 851 25.13 1.1 34 91 -0.3 31.5
02:00 1021 30.15 851 25.13 1.1 34 91 -0.2 31.6
02:05 1021 30.15 851 25.13 1.1 33.9 91 -0.3 31.5
02:10 1021 30.15 851 25.13 1.1 33.9 91 -0.2 31.6
02:15 1022 30.18 851 25.13 1 33.9 91 -0.2 31.6
02:20 1022 30.18 851 25.13 1 33.7 91 -0.3 31.5
02:25 1022 30.18 851 25.13 0.9 33.6 91 -0.3 31.4
02:30 1022 30.18 851 25.13 0.8 33.4 92 -0.4 31.3
02:35 1022 30.18 851 25.13 0.7 33.3 92 -0.5 31.1
02:40 1022 30.18 851 25.13 0.6 33.2 92 -0.5 31.1
02:45 1022 30.18 851 25.13 0.6 33.2 92 -0.5 31.2
02:50 1022 30.18 851 25.13 0.7 33.2 92 -0.4 31.3
02:55 1022 30.18 851 25.13 0.7 33.2 92 -0.4 31.2
03:00 1022 30.18 851 25.13 0.8 33.4 93 -0.3 31.5
03:05 1022 30.18 851 25.13 0.8 33.5 93 -0.2 31.6
03:10 1022 30.18 851 25.13 0.9 33.6 92 -0.2 31.6
03:15 1022 30.18 851 25.13 0.9 33.6 92 -0.2 31.6
03:20 1022 30.18 851 25.13 0.9 33.7 92 -0.2 31.7
03:25 1022 30.18 851 25.13 1 33.7 92 -0.2 31.6
03:30 1022 30.18 851 25.13 1 33.8 92 -0.2 31.7
03:35 1022 30.18 851 25.13 1 33.9 91 -0.3 31.5
03:40 1022 30.18 851 25.13 1.2 34.2 89 -0.4 31.4
03:45 1022 30.18 851 25.13 1.3 34.3 88 -0.4 31.3
03:50 1022 30.18 851 25.13 1.4 34.5 88 -0.4 31.2
03:55 1022 30.18 851 25.13 1.5 34.6 87 -0.4 31.3
04:00 1022 30.18 851 25.13 1.4 34.5 88 -0.4 31.2
04:05 1022 30.18 851 25.13 1.4 34.6 88 -0.4 31.3
04:10 1022 30.18 851 25.13 1.5 34.7 88 -0.4 31.3
04:15 1022 30.18 851 25.13 1.5 34.6 88 -0.4 31.3
04:20 1022 30.18 851 25.13 1.5 34.6 87 -0.5 31.2
04:25 1022 30.18 851 25.13 1.5 34.6 87 -0.4 31.2
04:30 1022 30.18 851 25.13 1.5 34.6 87 -0.5 31.1
04:35 1022 30.18 851 25.13 1.5 34.6 86 -0.6 30.8
04:40 1022 30.18 851 25.13 1.4 34.6 86 -0.6 30.9
04:45 1022 30.18 851 25.13 1.4 34.6 86 -0.7 30.8
04:50 1022 30.18 851 25.13 1.5 34.7 85 -0.8 30.6
04:55 1022 30.18 851 25.13 1.7 35 82 -1.1 30
05:00 1022 30.18 851 25.13 1.8 35.2 82 -1 30.2
05:05 1022 30.18 852 25.16 1.8 35.2 82 -1 30.3
05:10 1022 30.18 852 25.16 1.8 35.2 82 -1 30.2
05:15 1022 30.18 852 25.16 1.8 35.2 82 -0.9 30.3
05:20 1022 30.18 852 25.16 1.8 35.2 83 -0.8 30.5
05:25 1022 30.18 852 25.16 1.7 35.1 84 -0.8 30.6
05:30 1022 30.18 852 25.16 1.7 35.1 81 -1.2 29.9
05:35 1022 30.18 852 25.16 1.7 35.1 83 -0.9 30.4
05:40 1022 30.18 852 25.16 1.7 35 84 -0.8 30.5
05:45 1022 30.18 852 25.16 1.6 34.9 82 -1.1 30.1
05:50 1022 30.18 852 25.16 1.7 35 81 -1.3 29.7
05:55 1022 30.18 852 25.16 1.8 35.2 81 -1.1 30
06:00 1022 30.18 852 25.16 1.8 35.3 82 -0.9 30.4
06:05 1023 30.21 852 25.16 1.8 35.3 85 -0.4 31.2
06:10 1023 30.21 852 25.16 1.7 35 86 -0.5 31.2
06:15 1023 30.21 852 25.16 1.6 34.9 87 -0.4 31.3
06:20 1023 30.21 852 25.16 1.8 35.2 84 -0.6 30.9
06:25 1023 30.21 852 25.16 1.9 35.5 85 -0.4 31.3
06:30 1023 30.21 852 25.16 1.9 35.5 86 -0.2 31.6
06:35 1023 30.21 852 25.16 2 35.6 87 0 32.1
06:40 1023 30.21 852 25.16 1.9 35.4 87 -0.1 31.9
06:45 1023 30.21 852 25.16 1.9 35.4 88 0 32
06:50 1023 30.21 852 25.16 1.9 35.4 87 -0 32
06:55 1023 30.21 852 25.16 1.8 35.3 88 -0 31.9
07:00 1023 30.21 852 25.16 1.8 35.3 88 -0 32
07:05 1023 30.21 852 25.16 1.9 35.4 88 0 32.1
07:10 1023 30.21 852 25.16 1.9 35.4 87 -0 31.9
07:15 1023 30.21 852 25.16 1.9 35.4 87 -0 31.9
07:20 1023 30.21 852 25.16 1.8 35.3 87 -0.2 31.6
07:25 1023 30.21 852 25.16 1.8 35.2 87 -0.2 31.6
07:30 1023 30.21 852 25.16 1.8 35.2 86 -0.3 31.5
07:35 1023 30.21 852 25.16 1.8 35.3 87 -0.1 31.8
07:40 1023 30.21 852 25.16 1.9 35.5 86 -0.2 31.7
07:45 1023 30.21 852 25.16 1.9 35.5 80 -1.1 30
07:50 1023 30.21 853 25.19 2.1 35.8 81 -0.8 30.5
07:55 1023 30.21 853 25.19 2.3 36.1 74 -1.9 28.6
08:00 1023 30.21 853 25.19 2.4 36.2 74 -1.8 28.7
08:05 1023 30.21 853 25.19 2.4 36.3 74 -1.8 28.7
08:10 1023 30.21 853 25.19 2.4 36.4 73 -1.9 28.7
08:15 1023 30.21 853 25.19 2.6 36.6 72 -2 28.4
08:20 1023 30.21 853 25.19 2.7 36.8 74 -1.5 29.3
08:25 1024 30.24 853 25.19 2.8 37 71 -1.9 28.6
08:30 1024 30.24 853 25.19 2.7 36.9 73 -1.6 29.2
08:35 1024 30.24 853 25.19 2.7 36.9 71 -1.9 28.6
08:40 1024 30.24 853 25.19 2.8 37 72 -1.7 28.9
08:45 1024 30.24 853 25.19 2.9 37.2 72 -1.7 29
08:50 1024 30.24 853 25.19 2.9 37.2 70 -2.1 28.2
08:55 1024 30.24 853 25.19 2.8 37.1 71 -1.9 28.6
09:00 1023 30.21 853 25.19 3.1 37.5 72 -1.5 29.2
09:05 1023 30.21 853 25.19 3.3 37.9 70 -1.7 29
09:10 1023 30.21 853 25.19 3.5 38.2 69 -1.6 29.1
09:15 1023 30.21 853 25.19 3.6 38.5 69 -1.6 29.1
09:20 1023 30.21 853 25.19 3.8 38.8 69 -1.3 29.6
09:25 1023 30.21 853 25.19 3.4 38.1 76 -0.4 31.2
09:30 1023 30.21 853 25.19 3.3 37.9 74 -1 30.2
09:35 1023 30.21 853 25.19 3 37.4 74 -1.3 29.7
09:40 1023 30.21 853 25.19 3.1 37.6 75 -0.9 30.4
09:45 1023 30.21 853 25.19 3.4 38 74 -0.8 30.5
09:50 1023 30.21 853 25.19 3 37.3 79 -0.4 31.4
09:55 1023 30.21 853 25.19 3 37.4 77 -0.6 30.9
10:00 1024 30.24 853 25.19 3.3 37.9 74 -1 30.2
10:05 1024 30.24 853 25.19 3 37.5 77 -0.7 30.8
10:10 1024 30.24 853 25.19 3 37.4 79 -0.3 31.4
10:15 1024 30.24 853 25.19 2.8 37 78 -0.8 30.6
10:20 1024 30.24 853 25.19 3.1 37.5 78 -0.3 31.4
10:25 1024 30.24 853 25.19 3.3 37.9 76 -0.5 31
10:30 1024 30.24 853 25.19 3.4 38.2 77 -0.2 31.7
10:35 1024 30.24 853 25.19 3.5 38.3 74 -0.6 30.9
10:40 1024 30.24 853 25.19 3.3 37.9 77 -0.5 31.2
10:45 1024 30.24 853 25.19 3.2 37.8 78 -0.3 31.4
10:50 1024 30.24 853 25.19 3.5 38.3 75 -0.5 31
10:55 1024 30.24 853 25.19 3.5 38.3 77 -0.1 31.8
11:00 1024 30.24 853 25.19 3.6 38.5 77 0.1 32.1
11:05 1024 30.24 853 25.19 3.8 38.9 74 -0.3 31.4
11:10 1024 30.24 853 25.19 3.5 38.3 77 -0.2 31.6
11:15 1024 30.24 853 25.19 3.1 37.5 75 -0.9 30.4
11:20 1024 30.24 853 25.19 3.1 37.6 79 -0.2 31.7
11:25 1024 30.24 853 25.19 3.1 37.6 79 -0.2 31.6
11:30 1024 30.24 853 25.19 2.9 37.3 80 -0.2 31.6
11:35 1024 30.24 853 25.19 2.7 36.9 82 -0.1 31.8
11:40 1024 30.24 853 25.19 2.9 37.2 80 -0.3 31.4
11:45 1024 30.24 853 25.19 3 37.4 81 0 32
11:50 1024 30.24 853 25.19 2.9 37.3 82 0.1 32.1
11:55 1024 30.24 853 25.19 2.8 37 82 -0.1 31.8
12:00 1024 30.24 853 25.19 2.6 36.6 83 -0 32
12:05 1024 30.24 853 25.19 2.5 36.5 83 -0 31.9
12:10 1024 30.24 853 25.19 2.8 37.1 85 0.5 32.9
12:15 1024 30.24 853 25.19 3.1 37.6 82 0.4 32.7
12:20 1024 30.24 853 25.19 2.9 37.3 84 0.5 32.8
12:25 1024 30.24 853 25.19 2.8 37.1 85 0.5 32.9
12:30 1024 30.24 854 25.22 2.8 37 84 0.3 32.5
12:35 1024 30.24 854 25.22 2.8 37 85 0.5 32.9
12:40 1024 30.24 854 25.22 2.9 37.3 84 0.6 33
12:45 1024 30.24 854 25.22 3 37.4 82 0.3 32.5
12:50 1024 30.24 854 25.22 2.6 36.7 85 0.3 32.5
12:55 1024 30.24 854 25.22 2.7 36.8 85 0.4 32.8
13:00 1024 30.24 854 25.22 2.8 37 84 0.4 32.7
13:05 1024 30.24 854 25.22 2.8 37 85 0.5 32.9
13:10 1024 30.24 854 25.22 3.1 37.6 85 0.8 33.4
13:15 1024 30.24 854 25.22 3.3 38 83 0.8 33.4
13:20 1024 30.24 854 25.22 3.7 38.7 80 0.5 32.9
13:25 1024 30.24 854 25.22 3.9 39.1 78 0.5 32.9
13:30 1024 30.24 854 25.22 3.9 39 78 0.4 32.6
13:35 1024 30.24 854 25.22 3.6 38.6 81 0.7 33.3
13:40 1024 30.24 854 25.22 4 39.1 82 1.1 34
13:45 1024 30.24 854 25.22 4 39.3 80 0.9 33.6
13:50 1025 30.27 854 25.22 3.5 38.2 82 0.7 33.3
13:55 1025 30.27 854 25.22 3.6 38.5 85 1.3 34.4
14:00 1025 30.27 854 25.22 4.1 39.5 83 1.5 34.7
14:05 1025 30.27 854 25.22 4.4 40 78 0.9 33.6
14:10 1025 30.27 854 25.22 4.8 40.7 76 0.9 33.6
14:15 1025 30.27 854 25.22 5.2 41.3 75 1.1 34
14:20 1025 30.27 854 25.22 5 41 77 1.4 34.5
14:25 1025 30.27 854 25.22 4.8 40.6 77 1 33.9
14:30 1025 30.27 854 25.22 4.4 40 76 0.6 33
14:35 1025 30.27 854 25.22 4.4 39.9 75 0.4 32.7
14:40 1025 30.27 854 25.22 4.6 40.2 69 -0.5 31
14:45 1025 30.27 854 25.22 5.2 41.4 68 -0.3 31.5
14:50 1025 30.27 854 25.22 5.3 41.5 69 0.1 32.2
14:55 1025 30.27 854 25.22 5.4 41.7 66 -0.4 31.4
15:00 1025 30.27 854 25.22 5 41.1 74 0.8 33.5
15:05 1025 30.27 854 25.22 4.8 40.6 73 0.3 32.6
15:10 1025 30.27 854 25.22 5.1 41.1 73 0.7 33.2
15:15 1025 30.27 854 25.22 5.1 41.2 72 0.4 32.8
15:20 1025 30.27 854 25.22 5 41 70 -0 32
15:25 1025 30.27 854 25.22 5.2 41.3 71 0.3 32.6
15:30 1025 30.27 854 25.22 5.3 41.6 72 0.7 33.3
15:35 1025 30.27 854 25.22 5.1 41.2 72 0.6 33
15:40 1025 30.27 854 25.22 4.8 40.7 78 1.4 34.5
15:45 1025 30.27 854 25.22 4 39.2 78 0.5 32.9
15:50 1025 30.27 854 25.22 3.6 38.5 79 0.3 32.6
15:55 1025 30.27 854 25.22 3.5 38.4 81 0.6 33.2
16:00 1025 30.27 854 25.22 3.2 37.8 84 0.7 33.3
16:05 1025 30.27 854 25.22 3.2 37.8 84 0.7 33.2
16:10 1025 30.27 854 25.22 3.6 38.4 81 0.7 33.3
16:15 1025 30.27 854 25.22 4.1 39.4 83 1.4 34.5
16:20 1025 30.27 854 25.22 4.1 39.4 83 1.5 34.7
16:25 1025 30.27 854 25.22 4.3 39.8 77 0.7 33.2
16:30 1025 30.27 854 25.22 4.3 39.8 76 0.4 32.7
16:35 1025 30.27 854 25.22 4.4 39.9 76 0.6 33
16:40 1025 30.27 854 25.22 4.6 40.2 74 0.4 32.7
16:45 1025 30.27 854 25.22 5 40.9 76 1.1 34
16:50 1025 30.27 854 25.22 5.3 41.5 72 0.6 33.2
16:55 1025 30.27 854 25.22 5.1 41.2 74 0.8 33.5
17:00 1025 30.27 854 25.22 5 41 75 0.9 33.7
17:05 1025 30.27 854 25.22 4.9 40.9 74 0.7 33.2
17:10 1025 30.27 854 25.22 4.9 40.9 74 0.7 33.3
17:15 1025 30.27 854 25.22 4.4 40 77 0.8 33.4
17:20 1025 30.27 854 25.22 3.7 38.7 83 1.1 34.1
17:25 1025 30.27 855 25.25 3.5 38.2 84 1 33.7
17:30 1025 30.27 855 25.25 3.1 37.6 85 0.8 33.4
17:35 1025 30.27 855 25.25 3 37.4 85 0.7 33.3
17:40 1025 30.27 855 25.25 2.8 37.1 86 0.7 33.3
17:45 1026 30.3 855 25.25 2.7 36.9 85 0.4 32.6
17:50 1026 30.3 855 25.25 2.7 36.8 85 0.5 32.8
17:55 1026 30.3 855 25.25 2.8 37 86 0.7 33.3
18:00 1026 30.3 855 25.25 2.9 37.3 87 1 33.7
18:05 1026 30.3 855 25.25 3 37.4 86 0.9 33.6
18:10 1026 30.3 855 25.25 2.8 37.1 88 1 33.8
18:15 1026 30.3 855 25.25 3 37.4 88 1.2 34.2
18:20 1026 30.3 855 25.25 3.2 37.8 86 1 33.9
18:25 1026 30.3 855 25.25 3.4 38.1 85 1 33.9
18:30 1026 30.3 855 25.25 3.4 38.1 83 0.8 33.5
18:35 1026 30.3 855 25.25 3.4 38 85 1 33.8
18:40 1026 30.3 855 25.25 3.7 38.7 81 0.7 33.3
18:45 1026 30.3 855 25.25 3.7 38.7 80 0.5 33
18:50 1026 30.3 855 25.25 3.6 38.5 81 0.6 33.1
18:55 1026 30.3 855 25.25 3.8 38.8 78 0.3 32.5
19:00 1026 30.3 855 25.25 3.8 38.8 79 0.4 32.7
19:05 1026 30.3 855 25.25 3.9 38.9 80 0.7 33.3
19:10 1025 30.27 855 25.25 3.9 38.9 80 0.7 33.2
19:15 1025 30.27 855 25.25 3.9 39 80 0.7 33.3
19:20 1025 30.27 855 25.25 4 39.1 79 0.7 33.3
19:25 1025 30.27 855 25.25 4.1 39.3 78 0.6 33.1
19:30 1025 30.27 855 25.25 4.1 39.4 79 0.7 33.3
19:35 1025 30.27 855 25.25 4.2 39.5 77 0.6 33.1
19:40 1025 30.27 855 25.25 4.1 39.4 76 0.3 32.6
19:45 1025 30.27 855 25.25 4.1 39.3 76 0.3 32.5
19:50 1025 30.27 855 25.25 4.1 39.4 74 -0.1 31.8
19:55 1025 30.27 855 25.25 4.1 39.4 76 0.3 32.5
20:00 1025 30.27 855 25.25 4.1 39.4 74 -0 31.9
20:05 1025 30.27 855 25.25 4.1 39.4 75 0.1 32.2
20:10 1025 30.27 855 25.25 4.2 39.5 75 0.1 32.2
20:15 1026 30.3 855 25.25 4.2 39.6 74 0.1 32.1
20:20 1026 30.3 855 25.25 4.2 39.5 73 -0.2 31.7
20:25 1026 30.3 855 25.25 4.2 39.6 75 0.1 32.2
20:30 1026 30.3 855 25.25 4.1 39.4 74 -0.1 31.8
20:35 1026 30.3 855 25.25 4.1 39.4 73 -0.2 31.6
20:40 1026 30.3 855 25.25 4.1 39.3 74 -0.1 31.8
20:45 1026 30.3 855 25.25 4 39.3 74 -0.1 31.8
20:50 1026 30.3 855 25.25 4 39.2 76 0.2 32.3
20:55 1026 30.3 855 25.25 4 39.2 75 0.1 32.1
21:00 1026 30.3 855 25.25 3.8 38.9 78 0.3 32.5
21:05 1026 30.3 855 25.25 3.8 38.8 78 0.3 32.5
21:10 1026 30.3 855 25.25 3.8 38.9 77 0.2 32.4
21:15 1026 30.3 855 25.25 3.8 38.9 78 0.3 32.6
21:20 1026 30.3 855 25.25 3.9 38.9 78 0.4 32.8
21:25 1026 30.3 855 25.25 3.9 39.1 78 0.4 32.8
21:30 1026 30.3 855 25.25 3.9 39.1 78 0.4 32.8
21:35 1026 30.3 855 25.25 3.9 39.1 78 0.5 32.9
21:40 1026 30.3 855 25.25 3.9 39 76 0 32
21:45 1026 30.3 855 25.25 4 39.1 78 0.5 32.9
21:50 1026 30.3 855 25.25 3.9 39 80 0.7 33.2
21:55 1026 30.3 855 25.25 3.6 38.5 81 0.7 33.2
22:00 1026 30.3 855 25.25 3.4 38.1 82 0.6 33.1
22:05 1026 30.3 855 25.25 3.3 38 83 0.8 33.4
22:10 1026 30.3 855 25.25 3.3 37.9 84 0.8 33.5
22:15 1026 30.3 855 25.25 3.3 37.9 83 0.6 33.1
22:20 1026 30.3 855 25.25 3.3 38 81 0.4 32.7
22:25 1026 30.3 855 25.25 3.2 37.8 82 0.5 32.9
22:30 1026 30.3 855 25.25 3 37.4 83 0.5 32.8
22:35 1026 30.3 855 25.25 3 37.3 83 0.4 32.8
22:40 1026 30.3 855 25.25 3 37.4 82 0.3 32.5
22:45 1026 30.3 855 25.25 3.1 37.5 83 0.4 32.8
22:50 1026 30.3 855 25.25 3.1 37.5 82 0.3 32.5
22:55 1026 30.3 855 25.25 3.1 37.5 82 0.3 32.6
23:00 1026 30.3 855 25.25 3.1 37.5 83 0.5 32.8
23:05 1026 30.3 855 25.25 3.1 37.5 82 0.3 32.6
23:10 1026 30.3 855 25.25 3.1 37.6 82 0.4 32.7
23:15 1026 30.3 855 25.25 3.2 37.8 81 0.2 32.4
23:20 1026 30.3 855 25.25 3.2 37.8 80 0.2 32.3
23:25 1026 30.3 855 25.25 3.3 37.9 80 0.2 32.3
23:30 1026 30.3 855 25.25 3.2 37.7 81 0.2 32.3
23:35 1026 30.3 855 25.25 3.1 37.6 81 0.2 32.3
23:40 1026 30.3 855 25.25 3 37.5 81 0.1 32.2
23:45 1026 30.3 855 25.25 2.9 37.3 82 0.1 32.3
23:50 1026 30.3 855 25.25 2.9 37.2 82 0.1 32.3
23:55 1026 30.3 855 25.25 2.8 37.1 83 0.2 32.4
24:00 1026 30.3 855 25.25 2.8 37 84 0.3 32.6